sensor_id;sensor_type;location;lat;lon;timestamp;P1;durP1;ratioP1;P2;durP2;ratioP2
27895;SDS011;15241;48.374;10.876;2023-05-29T00:00:10;14.95;;;9.28;;
27895;SDS011;15241;48.374;10.876;2023-05-29T00:05:11;13.50;;;8.90;;
27895;SDS011;15241;48.374;10.876;2023-05-29T00:10:10;13.72;;;8.38;;
27895;SDS011;15241;48.374;10.876;2023-05-29T00:15:10;12.73;;;8.20;;
27895;SDS011;15241;48.374;10.876;2023-05-29T00:20:11;15.65;;;8.40;;
27895;SDS011;15241;48.374;10.876;2023-05-29T00:25:10;16.32;;;8.75;;
27895;SDS011;15241;48.374;10.876;2023-05-29T00:30:10;13.65;;;8.80;;
27895;SDS011;15241;48.374;10.876;2023-05-29T00:35:10;13.15;;;8.63;;
27895;SDS011;15241;48.374;10.876;2023-05-29T00:40:09;13.88;;;8.50;;
27895;SDS011;15241;48.374;10.876;2023-05-29T00:45:10;14.70;;;8.40;;
27895;SDS011;15241;48.374;10.876;2023-05-29T00:50:19;20.08;;;9.05;;
27895;SDS011;15241;48.374;10.876;2023-05-29T00:55:19;13.48;;;9.03;;
27895;SDS011;15241;48.374;10.876;2023-05-29T01:00:19;15.50;;;9.10;;
27895;SDS011;15241;48.374;10.876;2023-05-29T01:05:19;12.80;;;7.95;;
27895;SDS011;15241;48.374;10.876;2023-05-29T01:10:18;16.70;;;7.60;;
27895;SDS011;15241;48.374;10.876;2023-05-29T01:15:20;13.85;;;8.23;;
27895;SDS011;15241;48.374;10.876;2023-05-29T01:20:24;10.53;;;7.35;;
27895;SDS011;15241;48.374;10.876;2023-05-29T01:25:29;13.25;;;7.37;;
27895;SDS011;15241;48.374;10.876;2023-05-29T01:30:31;13.62;;;7.67;;
27895;SDS011;15241;48.374;10.876;2023-05-29T01:35:31;11.95;;;6.72;;
27895;SDS011;15241;48.374;10.876;2023-05-29T01:40:30;13.53;;;7.60;;
27895;SDS011;15241;48.374;10.876;2023-05-29T01:45:29;12.82;;;7.12;;
27895;SDS011;15241;48.374;10.876;2023-05-29T01:50:29;14.38;;;7.42;;
27895;SDS011;15241;48.374;10.876;2023-05-29T01:55:28;10.28;;;6.25;;
27895;SDS011;15241;48.374;10.876;2023-05-29T02:00:27;14.28;;;7.90;;
27895;SDS011;15241;48.374;10.876;2023-05-29T02:05:26;8.55;;;6.25;;
27895;SDS011;15241;48.374;10.876;2023-05-29T02:10:25;10.43;;;6.70;;
27895;SDS011;15241;48.374;10.876;2023-05-29T02:15:24;9.90;;;6.92;;
27895;SDS011;15241;48.374;10.876;2023-05-29T02:20:23;8.68;;;6.22;;
27895;SDS011;15241;48.374;10.876;2023-05-29T02:25:22;9.95;;;6.37;;
27895;SDS011;15241;48.374;10.876;2023-05-29T02:30:21;12.58;;;7.37;;
27895;SDS011;15241;48.374;10.876;2023-05-29T02:35:20;12.53;;;6.50;;
27895;SDS011;15241;48.374;10.876;2023-05-29T02:40:19;10.38;;;6.87;;
27895;SDS011;15241;48.374;10.876;2023-05-29T02:45:18;12.35;;;6.85;;
27895;SDS011;15241;48.374;10.876;2023-05-29T02:50:17;10.70;;;6.47;;
27895;SDS011;15241;48.374;10.876;2023-05-29T02:55:16;11.35;;;6.80;;
27895;SDS011;15241;48.374;10.876;2023-05-29T03:00:17;11.88;;;7.25;;
27895;SDS011;15241;48.374;10.876;2023-05-29T03:05:16;10.55;;;6.22;;
27895;SDS011;15241;48.374;10.876;2023-05-29T03:10:17;9.60;;;6.20;;
27895;SDS011;15241;48.374;10.876;2023-05-29T03:15:16;9.60;;;6.33;;
27895;SDS011;15241;48.374;10.876;2023-05-29T03:20:16;11.08;;;6.08;;
27895;SDS011;15241;48.374;10.876;2023-05-29T03:25:16;9.83;;;6.03;;
27895;SDS011;15241;48.374;10.876;2023-05-29T03:30:16;10.70;;;5.78;;
27895;SDS011;15241;48.374;10.876;2023-05-29T03:35:15;9.73;;;6.28;;
27895;SDS011;15241;48.374;10.876;2023-05-29T03:40:14;8.35;;;6.00;;
27895;SDS011;15241;48.374;10.876;2023-05-29T03:45:13;9.48;;;5.92;;
27895;SDS011;15241;48.374;10.876;2023-05-29T03:50:12;9.40;;;5.62;;
27895;SDS011;15241;48.374;10.876;2023-05-29T03:55:12;11.30;;;5.80;;
27895;SDS011;15241;48.374;10.876;2023-05-29T04:05:18;9.43;;;6.12;;
27895;SDS011;15241;48.374;10.876;2023-05-29T04:10:17;9.70;;;5.62;;
27895;SDS011;15241;48.374;10.876;2023-05-29T04:15:16;10.32;;;5.47;;
27895;SDS011;15241;48.374;10.876;2023-05-29T04:20:15;7.42;;;5.50;;
27895;SDS011;15241;48.374;10.876;2023-05-29T04:25:14;8.85;;;5.95;;
27895;SDS011;15241;48.374;10.876;2023-05-29T04:30:14;10.38;;;6.35;;
27895;SDS011;15241;48.374;10.876;2023-05-29T04:35:13;8.15;;;5.10;;
27895;SDS011;15241;48.374;10.876;2023-05-29T04:40:12;9.65;;;5.30;;
27895;SDS011;15241;48.374;10.876;2023-05-29T04:45:11;8.60;;;5.05;;
27895;SDS011;15241;48.374;10.876;2023-05-29T04:50:11;11.03;;;5.15;;
27895;SDS011;15241;48.374;10.876;2023-05-29T04:55:11;9.45;;;5.70;;
27895;SDS011;15241;48.374;10.876;2023-05-29T05:00:19;8.55;;;5.33;;
27895;SDS011;15241;48.374;10.876;2023-05-29T05:05:19;9.15;;;5.30;;
27895;SDS011;15241;48.374;10.876;2023-05-29T05:10:18;8.63;;;5.22;;
27895;SDS011;15241;48.374;10.876;2023-05-29T05:15:17;8.18;;;5.22;;
27895;SDS011;15241;48.374;10.876;2023-05-29T05:20:16;7.72;;;5.08;;
27895;SDS011;15241;48.374;10.876;2023-05-29T05:25:15;7.72;;;5.20;;
27895;SDS011;15241;48.374;10.876;2023-05-29T05:30:14;10.85;;;5.40;;
27895;SDS011;15241;48.374;10.876;2023-05-29T05:35:14;9.80;;;5.42;;
27895;SDS011;15241;48.374;10.876;2023-05-29T05:40:13;8.68;;;5.65;;
27895;SDS011;15241;48.374;10.876;2023-05-29T05:45:12;11.85;;;6.45;;
27895;SDS011;15241;48.374;10.876;2023-05-29T05:50:11;10.88;;;5.22;;
27895;SDS011;15241;48.374;10.876;2023-05-29T05:55:10;10.13;;;5.33;;
27895;SDS011;15241;48.374;10.876;2023-05-29T06:00:11;12.13;;;5.60;;
27895;SDS011;15241;48.374;10.876;2023-05-29T06:10:20;8.33;;;5.35;;
27895;SDS011;15241;48.374;10.876;2023-05-29T06:15:19;9.80;;;5.30;;
27895;SDS011;15241;48.374;10.876;2023-05-29T06:20:18;9.93;;;5.28;;
27895;SDS011;15241;48.374;10.876;2023-05-29T06:25:18;11.33;;;5.95;;
27895;SDS011;15241;48.374;10.876;2023-05-29T06:30:17;12.90;;;8.55;;
27895;SDS011;15241;48.374;10.876;2023-05-29T06:35:16;8.58;;;4.85;;
27895;SDS011;15241;48.374;10.876;2023-05-29T06:40:15;6.90;;;4.75;;
27895;SDS011;15241;48.374;10.876;2023-05-29T06:45:15;8.50;;;5.30;;
27895;SDS011;15241;48.374;10.876;2023-05-29T06:50:14;9.18;;;4.92;;
27895;SDS011;15241;48.374;10.876;2023-05-29T06:55:13;6.45;;;4.22;;
27895;SDS011;15241;48.374;10.876;2023-05-29T07:00:13;6.35;;;4.15;;
27895;SDS011;15241;48.374;10.876;2023-05-29T07:05:14;8.15;;;4.10;;
27895;SDS011;15241;48.374;10.876;2023-05-29T07:10:13;5.25;;;3.47;;
27895;SDS011;15241;48.374;10.876;2023-05-29T07:15:12;6.97;;;4.62;;
27895;SDS011;15241;48.374;10.876;2023-05-29T07:20:12;8.05;;;4.60;;
27895;SDS011;15241;48.374;10.876;2023-05-29T07:25:11;9.13;;;4.67;;
27895;SDS011;15241;48.374;10.876;2023-05-29T07:30:11;7.55;;;4.33;;
27895;SDS011;15241;48.374;10.876;2023-05-29T07:35:11;6.03;;;3.90;;
27895;SDS011;15241;48.374;10.876;2023-05-29T07:40:10;10.23;;;4.55;;
27895;SDS011;15241;48.374;10.876;2023-05-29T07:45:09;6.53;;;4.67;;
27895;SDS011;15241;48.374;10.876;2023-05-29T07:50:09;10.23;;;5.60;;
27895;SDS011;15241;48.374;10.876;2023-05-29T07:55:08;9.83;;;4.85;;
27895;SDS011;15241;48.374;10.876;2023-05-29T08:00:08;7.42;;;4.55;;
27895;SDS011;15241;48.374;10.876;2023-05-29T08:05:08;7.00;;;4.65;;
27895;SDS011;15241;48.374;10.876;2023-05-29T08:10:08;9.08;;;4.85;;
27895;SDS011;15241;48.374;10.876;2023-05-29T08:15:08;9.70;;;4.85;;
27895;SDS011;15241;48.374;10.876;2023-05-29T08:20:09;6.55;;;4.55;;
27895;SDS011;15241;48.374;10.876;2023-05-29T08:25:09;6.33;;;4.12;;
27895;SDS011;15241;48.374;10.876;2023-05-29T08:30:09;7.75;;;4.60;;
27895;SDS011;15241;48.374;10.876;2023-05-29T08:35:10;6.75;;;4.22;;
27895;SDS011;15241;48.374;10.876;2023-05-29T08:40:10;9.25;;;4.50;;
27895;SDS011;15241;48.374;10.876;2023-05-29T08:45:10;8.13;;;4.65;;
27895;SDS011;15241;48.374;10.876;2023-05-29T08:50:11;6.92;;;4.15;;
27895;SDS011;15241;48.374;10.876;2023-05-29T08:55:10;6.35;;;4.50;;
27895;SDS011;15241;48.374;10.876;2023-05-29T09:00:18;9.38;;;4.90;;
27895;SDS011;15241;48.374;10.876;2023-05-29T09:05:18;9.90;;;4.42;;
27895;SDS011;15241;48.374;10.876;2023-05-29T09:10:17;6.10;;;4.20;;
27895;SDS011;15241;48.374;10.876;2023-05-29T09:15:17;6.37;;;3.80;;
27895;SDS011;15241;48.374;10.876;2023-05-29T09:20:17;6.45;;;4.00;;
27895;SDS011;15241;48.374;10.876;2023-05-29T09:25:17;6.45;;;3.85;;
27895;SDS011;15241;48.374;10.876;2023-05-29T09:30:17;5.50;;;4.20;;
27895;SDS011;15241;48.374;10.876;2023-05-29T09:35:34;7.67;;;4.40;;
27895;SDS011;15241;48.374;10.876;2023-05-29T09:40:35;5.37;;;3.50;;
27895;SDS011;15241;48.374;10.876;2023-05-29T09:45:38;6.75;;;4.00;;
27895;SDS011;15241;48.374;10.876;2023-05-29T09:50:37;10.15;;;4.35;;
27895;SDS011;15241;48.374;10.876;2023-05-29T09:55:36;6.60;;;3.95;;
27895;SDS011;15241;48.374;10.876;2023-05-29T10:00:35;5.85;;;3.95;;
27895;SDS011;15241;48.374;10.876;2023-05-29T10:05:34;6.10;;;3.60;;
27895;SDS011;15241;48.374;10.876;2023-05-29T10:10:34;7.40;;;4.05;;
27895;SDS011;15241;48.374;10.876;2023-05-29T10:15:35;5.08;;;3.65;;
27895;SDS011;15241;48.374;10.876;2023-05-29T10:20:35;7.05;;;4.00;;
27895;SDS011;15241;48.374;10.876;2023-05-29T10:25:35;10.38;;;4.15;;
27895;SDS011;15241;48.374;10.876;2023-05-29T10:30:36;5.92;;;3.80;;
27895;SDS011;15241;48.374;10.876;2023-05-29T10:35:40;4.75;;;3.62;;
27895;SDS011;15241;48.374;10.876;2023-05-29T10:40:42;6.50;;;3.98;;
27895;SDS011;15241;48.374;10.876;2023-05-29T10:45:49;6.62;;;3.67;;
27895;SDS011;15241;48.374;10.876;2023-05-29T10:50:48;7.30;;;3.80;;
27895;SDS011;15241;48.374;10.876;2023-05-29T10:55:48;8.70;;;3.98;;
27895;SDS011;15241;48.374;10.876;2023-05-29T11:00:49;6.10;;;3.90;;
27895;SDS011;15241;48.374;10.876;2023-05-29T11:05:58;4.10;;;3.70;;
27895;SDS011;15241;48.374;10.876;2023-05-29T11:10:58;7.97;;;3.25;;
27895;SDS011;15241;48.374;10.876;2023-05-29T11:16:04;6.00;;;3.52;;
27895;SDS011;15241;48.374;10.876;2023-05-29T11:21:21;4.23;;;2.93;;
27895;SDS011;15241;48.374;10.876;2023-05-29T11:26:29;5.90;;;4.50;;
27895;SDS011;15241;48.374;10.876;2023-05-29T11:31:29;8.90;;;4.25;;
27895;SDS011;15241;48.374;10.876;2023-05-29T11:36:30;8.55;;;4.83;;
27895;SDS011;15241;48.374;10.876;2023-05-29T11:41:30;30.02;;;4.42;;
27895;SDS011;15241;48.374;10.876;2023-05-29T11:46:29;7.67;;;4.40;;
27895;SDS011;15241;48.374;10.876;2023-05-29T11:51:28;3.98;;;3.37;;
27895;SDS011;15241;48.374;10.876;2023-05-29T11:56:27;5.95;;;3.80;;
27895;SDS011;15241;48.374;10.876;2023-05-29T12:01:27;7.65;;;3.27;;
27895;SDS011;15241;48.374;10.876;2023-05-29T12:06:32;4.70;;;3.05;;
27895;SDS011;15241;48.374;10.876;2023-05-29T12:11:31;5.12;;;3.52;;
27895;SDS011;15241;48.374;10.876;2023-05-29T12:16:32;6.08;;;3.33;;
27895;SDS011;15241;48.374;10.876;2023-05-29T12:21:32;4.00;;;3.05;;
27895;SDS011;15241;48.374;10.876;2023-05-29T12:26:31;6.22;;;3.40;;
27895;SDS011;15241;48.374;10.876;2023-05-29T12:31:30;4.60;;;3.22;;
27895;SDS011;15241;48.374;10.876;2023-05-29T12:36:29;4.92;;;3.80;;
27895;SDS011;15241;48.374;10.876;2023-05-29T12:41:29;7.33;;;4.25;;
27895;SDS011;15241;48.374;10.876;2023-05-29T12:46:35;5.47;;;3.77;;
27895;SDS011;15241;48.374;10.876;2023-05-29T12:51:35;4.50;;;3.20;;
27895;SDS011;15241;48.374;10.876;2023-05-29T12:56:46;8.03;;;3.50;;
27895;SDS011;15241;48.374;10.876;2023-05-29T13:01:45;4.53;;;3.60;;
27895;SDS011;15241;48.374;10.876;2023-05-29T13:06:44;5.42;;;3.67;;
27895;SDS011;15241;48.374;10.876;2023-05-29T13:11:43;6.10;;;3.77;;
27895;SDS011;15241;48.374;10.876;2023-05-29T13:16:42;5.08;;;3.62;;
27895;SDS011;15241;48.374;10.876;2023-05-29T13:21:41;7.03;;;3.25;;
27895;SDS011;15241;48.374;10.876;2023-05-29T13:26:40;3.80;;;3.20;;
27895;SDS011;15241;48.374;10.876;2023-05-29T13:31:39;5.15;;;3.12;;
27895;SDS011;15241;48.374;10.876;2023-05-29T13:36:38;5.05;;;3.40;;
27895;SDS011;15241;48.374;10.876;2023-05-29T13:41:37;7.08;;;3.62;;
27895;SDS011;15241;48.374;10.876;2023-05-29T13:46:36;11.03;;;3.52;;
27895;SDS011;15241;48.374;10.876;2023-05-29T13:51:35;4.92;;;3.15;;
27895;SDS011;15241;48.374;10.876;2023-05-29T13:56:34;5.97;;;3.45;;
27895;SDS011;15241;48.374;10.876;2023-05-29T14:01:33;5.12;;;3.70;;
27895;SDS011;15241;48.374;10.876;2023-05-29T14:06:32;4.37;;;3.37;;
27895;SDS011;15241;48.374;10.876;2023-05-29T14:11:31;5.75;;;3.37;;
27895;SDS011;15241;48.374;10.876;2023-05-29T14:16:30;4.50;;;3.60;;
27895;SDS011;15241;48.374;10.876;2023-05-29T14:21:29;3.17;;;2.55;;
27895;SDS011;15241;48.374;10.876;2023-05-29T14:26:28;6.60;;;3.22;;
27895;SDS011;15241;48.374;10.876;2023-05-29T14:31:27;7.55;;;3.45;;
27895;SDS011;15241;48.374;10.876;2023-05-29T14:36:26;7.85;;;3.42;;
27895;SDS011;15241;48.374;10.876;2023-05-29T14:41:25;8.28;;;2.85;;
27895;SDS011;15241;48.374;10.876;2023-05-29T14:46:26;6.53;;;3.62;;
27895;SDS011;15241;48.374;10.876;2023-05-29T14:51:24;3.95;;;3.15;;
27895;SDS011;15241;48.374;10.876;2023-05-29T14:56:23;3.52;;;3.00;;
27895;SDS011;15241;48.374;10.876;2023-05-29T15:01:23;13.03;;;3.52;;
27895;SDS011;15241;48.374;10.876;2023-05-29T15:06:21;3.75;;;3.45;;
27895;SDS011;15241;48.374;10.876;2023-05-29T15:11:20;4.83;;;3.00;;
27895;SDS011;15241;48.374;10.876;2023-05-29T15:16:19;3.15;;;2.85;;
27895;SDS011;15241;48.374;10.876;2023-05-29T15:21:18;4.83;;;3.20;;
27895;SDS011;15241;48.374;10.876;2023-05-29T15:26:17;5.75;;;2.85;;
27895;SDS011;15241;48.374;10.876;2023-05-29T15:31:16;5.05;;;3.35;;
27895;SDS011;15241;48.374;10.876;2023-05-29T15:36:15;4.78;;;2.70;;
27895;SDS011;15241;48.374;10.876;2023-05-29T15:41:14;5.03;;;2.90;;
27895;SDS011;15241;48.374;10.876;2023-05-29T15:46:13;5.22;;;2.60;;
27895;SDS011;15241;48.374;10.876;2023-05-29T15:51:13;4.10;;;3.02;;
27895;SDS011;15241;48.374;10.876;2023-05-29T15:56:12;4.15;;;2.80;;
27895;SDS011;15241;48.374;10.876;2023-05-29T16:01:11;4.30;;;3.10;;
27895;SDS011;15241;48.374;10.876;2023-05-29T16:06:10;4.97;;;3.35;;
27895;SDS011;15241;48.374;10.876;2023-05-29T16:11:09;4.50;;;2.90;;
27895;SDS011;15241;48.374;10.876;2023-05-29T16:16:17;4.33;;;2.77;;
27895;SDS011;15241;48.374;10.876;2023-05-29T16:21:15;3.60;;;2.77;;
27895;SDS011;15241;48.374;10.876;2023-05-29T16:26:14;3.17;;;2.40;;
27895;SDS011;15241;48.374;10.876;2023-05-29T16:31:14;3.60;;;2.90;;
27895;SDS011;15241;48.374;10.876;2023-05-29T16:36:13;3.05;;;2.40;;
27895;SDS011;15241;48.374;10.876;2023-05-29T16:41:12;5.37;;;3.00;;
27895;SDS011;15241;48.374;10.876;2023-05-29T16:46:11;5.80;;;2.75;;
27895;SDS011;15241;48.374;10.876;2023-05-29T16:51:10;4.47;;;3.10;;
27895;SDS011;15241;48.374;10.876;2023-05-29T16:56:09;4.15;;;2.52;;
27895;SDS011;15241;48.374;10.876;2023-05-29T17:01:07;3.08;;;2.50;;
27895;SDS011;15241;48.374;10.876;2023-05-29T17:06:07;4.08;;;3.12;;
27895;SDS011;15241;48.374;10.876;2023-05-29T17:11:06;3.20;;;2.80;;
27895;SDS011;15241;48.374;10.876;2023-05-29T17:16:05;5.30;;;2.77;;
27895;SDS011;15241;48.374;10.876;2023-05-29T17:21:04;5.67;;;3.42;;
27895;SDS011;15241;48.374;10.876;2023-05-29T17:26:03;7.70;;;2.95;;
27895;SDS011;15241;48.374;10.876;2023-05-29T17:31:02;6.83;;;3.70;;
27895;SDS011;15241;48.374;10.876;2023-05-29T17:36:01;3.42;;;2.92;;
27895;SDS011;15241;48.374;10.876;2023-05-29T17:41:00;3.83;;;3.30;;
27895;SDS011;15241;48.374;10.876;2023-05-29T17:45:59;4.85;;;3.12;;
27895;SDS011;15241;48.374;10.876;2023-05-29T17:50:58;4.97;;;3.98;;
27895;SDS011;15241;48.374;10.876;2023-05-29T17:55:57;5.20;;;3.50;;
27895;SDS011;15241;48.374;10.876;2023-05-29T18:00:57;4.10;;;3.12;;
27895;SDS011;15241;48.374;10.876;2023-05-29T18:05:58;5.80;;;2.85;;
27895;SDS011;15241;48.374;10.876;2023-05-29T18:10:57;5.22;;;2.90;;
27895;SDS011;15241;48.374;10.876;2023-05-29T18:15:56;5.15;;;3.20;;
27895;SDS011;15241;48.374;10.876;2023-05-29T18:20:55;3.52;;;2.72;;
27895;SDS011;15241;48.374;10.876;2023-05-29T18:26:02;5.55;;;3.20;;
27895;SDS011;15241;48.374;10.876;2023-05-29T18:31:01;4.35;;;2.75;;
27895;SDS011;15241;48.374;10.876;2023-05-29T18:36:00;6.75;;;3.17;;
27895;SDS011;15241;48.374;10.876;2023-05-29T18:40:59;4.62;;;3.10;;
27895;SDS011;15241;48.374;10.876;2023-05-29T18:45:58;5.90;;;4.12;;
27895;SDS011;15241;48.374;10.876;2023-05-29T18:50:59;4.08;;;3.15;;
27895;SDS011;15241;48.374;10.876;2023-05-29T18:55:58;7.17;;;3.70;;
27895;SDS011;15241;48.374;10.876;2023-05-29T19:00:57;6.55;;;3.47;;
27895;SDS011;15241;48.374;10.876;2023-05-29T19:05:55;6.85;;;4.42;;
27895;SDS011;15241;48.374;10.876;2023-05-29T19:10:54;5.95;;;3.70;;
27895;SDS011;15241;48.374;10.876;2023-05-29T19:15:53;5.83;;;3.10;;
27895;SDS011;15241;48.374;10.876;2023-05-29T19:20:52;6.20;;;3.35;;
27895;SDS011;15241;48.374;10.876;2023-05-29T19:25:51;4.87;;;3.02;;
27895;SDS011;15241;48.374;10.876;2023-05-29T19:30:50;12.40;;;4.42;;
27895;SDS011;15241;48.374;10.876;2023-05-29T19:35:49;7.05;;;4.55;;
27895;SDS011;15241;48.374;10.876;2023-05-29T19:40:48;10.28;;;4.95;;
27895;SDS011;15241;48.374;10.876;2023-05-29T19:45:47;8.80;;;4.17;;
27895;SDS011;15241;48.374;10.876;2023-05-29T19:50:46;6.45;;;4.00;;
27895;SDS011;15241;48.374;10.876;2023-05-29T19:55:45;5.55;;;4.20;;
27895;SDS011;15241;48.374;10.876;2023-05-29T20:00:44;8.63;;;5.97;;
27895;SDS011;15241;48.374;10.876;2023-05-29T20:05:43;8.00;;;5.30;;
27895;SDS011;15241;48.374;10.876;2023-05-29T20:10:42;10.25;;;5.87;;
27895;SDS011;15241;48.374;10.876;2023-05-29T20:15:41;9.85;;;6.33;;
27895;SDS011;15241;48.374;10.876;2023-05-29T20:20:39;10.70;;;6.17;;
27895;SDS011;15241;48.374;10.876;2023-05-29T20:25:38;10.65;;;5.95;;
27895;SDS011;15241;48.374;10.876;2023-05-29T20:30:37;8.45;;;5.25;;
27895;SDS011;15241;48.374;10.876;2023-05-29T20:35:36;11.40;;;5.20;;
27895;SDS011;15241;48.374;10.876;2023-05-29T20:40:35;9.08;;;5.08;;
27895;SDS011;15241;48.374;10.876;2023-05-29T20:45:34;8.53;;;5.05;;
27895;SDS011;15241;48.374;10.876;2023-05-29T20:55:39;9.68;;;5.53;;
27895;SDS011;15241;48.374;10.876;2023-05-29T21:00:38;9.78;;;5.60;;
27895;SDS011;15241;48.374;10.876;2023-05-29T21:10:55;8.70;;;4.65;;
27895;SDS011;15241;48.374;10.876;2023-05-29T21:15:53;9.43;;;5.25;;
27895;SDS011;15241;48.374;10.876;2023-05-29T21:20:52;8.63;;;5.15;;
27895;SDS011;15241;48.374;10.876;2023-05-29T21:25:51;8.80;;;4.83;;
27895;SDS011;15241;48.374;10.876;2023-05-29T21:30:50;9.35;;;4.72;;
27895;SDS011;15241;48.374;10.876;2023-05-29T21:35:49;7.72;;;5.00;;
27895;SDS011;15241;48.374;10.876;2023-05-29T21:40:48;8.63;;;4.40;;
27895;SDS011;15241;48.374;10.876;2023-05-29T21:45:48;6.00;;;4.42;;
27895;SDS011;15241;48.374;10.876;2023-05-29T21:50:47;6.85;;;4.25;;
27895;SDS011;15241;48.374;10.876;2023-05-29T21:55:46;11.00;;;4.53;;
27895;SDS011;15241;48.374;10.876;2023-05-29T22:00:45;7.30;;;5.80;;
27895;SDS011;15241;48.374;10.876;2023-05-29T22:05:44;9.83;;;6.80;;
27895;SDS011;15241;48.374;10.876;2023-05-29T22:10:43;9.33;;;4.50;;
27895;SDS011;15241;48.374;10.876;2023-05-29T22:15:42;8.10;;;4.35;;
27895;SDS011;15241;48.374;10.876;2023-05-29T22:20:41;5.30;;;3.50;;
27895;SDS011;15241;48.374;10.876;2023-05-29T22:25:40;4.42;;;3.50;;
27895;SDS011;15241;48.374;10.876;2023-05-29T22:30:39;4.92;;;3.45;;
27895;SDS011;15241;48.374;10.876;2023-05-29T22:35:38;5.33;;;3.45;;
27895;SDS011;15241;48.374;10.876;2023-05-29T22:40:36;5.97;;;3.25;;
27895;SDS011;15241;48.374;10.876;2023-05-29T22:45:35;5.90;;;3.00;;
27895;SDS011;15241;48.374;10.876;2023-05-29T22:50:34;4.97;;;3.35;;
27895;SDS011;15241;48.374;10.876;2023-05-29T22:55:33;7.60;;;3.40;;
27895;SDS011;15241;48.374;10.876;2023-05-29T23:00:32;4.35;;;3.12;;
27895;SDS011;15241;48.374;10.876;2023-05-29T23:05:31;4.90;;;3.15;;
27895;SDS011;15241;48.374;10.876;2023-05-29T23:10:30;5.03;;;3.10;;
27895;SDS011;15241;48.374;10.876;2023-05-29T23:15:30;5.37;;;3.47;;
27895;SDS011;15241;48.374;10.876;2023-05-29T23:20:29;7.75;;;3.52;;
27895;SDS011;15241;48.374;10.876;2023-05-29T23:25:28;4.58;;;3.05;;
27895;SDS011;15241;48.374;10.876;2023-05-29T23:30:26;6.40;;;3.62;;
27895;SDS011;15241;48.374;10.876;2023-05-29T23:35:25;5.28;;;3.50;;
27895;SDS011;15241;48.374;10.876;2023-05-29T23:40:24;6.95;;;3.40;;
27895;SDS011;15241;48.374;10.876;2023-05-29T23:45:23;9.05;;;3.50;;
27895;SDS011;15241;48.374;10.876;2023-05-29T23:50:22;6.42;;;2.92;;
27895;SDS011;15241;48.374;10.876;2023-05-29T23:55:21;4.33;;;3.05;;
